Time;durP1;ratioP1;P1;durP2;ratioP2;P2;SDS_P1;SDS_P2;PMS_P1;PMS_P2;Temp;Humidity;BMP_temperature;BMP_pressure;BME280_temperature;BME280_humidity;BME280_pressure;Samples;Min_cycle;Max_cycle;Signal;HPM_P1;HPM_P2
2023/01/18 00:00:32;;;;;;;0.50;0.10;;;2.20;74.00;;;;;;4963227;28;20455;-72
2023/01/18 00:03:02;;;;;;;0.50;0.20;;;2.30;66.00;;;;;;4967587;28;20510;-71
2023/01/18 00:05:30;;;;;;;2.63;2.43;;;2.20;74.10;;;;;;4965449;28;20439;-71
2023/01/18 00:07:58;;;;;;;0.50;0.10;;;2.30;74.30;;;;;;4965178;28;20447;-73
2023/01/18 00:10:26;;;;;;;1.53;0.50;;;2.30;64.70;;;;;;4960822;28;20455;-71
2023/01/18 00:12:53;;;;;;;0.60;0.50;;;2.30;62.50;;;;;;4964201;28;20841;-71
2023/01/18 00:15:22;;;;;;;0.50;0.10;;;2.30;62.20;;;;;;4967496;28;20483;-70
2023/01/18 00:17:51;;;;;;;0.60;0.30;;;2.30;70.00;;;;;;4968500;28;20439;-71
2023/01/18 00:20:22;;;;;;;0.73;0.30;;;2.30;63.80;;;;;;4966766;28;20494;-71
2023/01/18 00:22:52;;;;;;;0.50;0.10;;;2.30;61.10;;;;;;4957989;29;20522;-72
2023/01/18 00:25:22;;;;;;;0.60;0.30;;;2.30;68.40;;;;;;4968652;28;20439;-70
2023/01/18 00:27:53;;;;;;;0.50;0.10;;;2.30;60.20;;;;;;4966604;28;20446;-71
2023/01/18 00:30:23;;;;;;;0.93;0.40;;;2.30;66.10;;;;;;4964726;28;20530;-71
2023/01/18 00:32:54;;;;;;;0.50;0.10;;;2.30;56.40;;;;;;4962890;28;20562;-70
2023/01/18 00:35:25;;;;;;;0.50;0.10;;;2.30;63.40;;;;;;4959349;28;20482;-70
2023/01/18 00:37:53;;;;;;;0.50;0.10;;;2.30;54.30;;;;;;4963375;28;20450;-70
2023/01/18 00:40:22;;;;;;;0.77;0.50;;;2.30;62.10;;;;;;4963376;28;20447;-70
2023/01/18 00:45:35;;;;;;;0.60;0.43;;;2.30;54.30;;;;;;4960981;28;20439;-70
2023/01/18 00:48:03;;;;;;;0.60;0.40;;;2.30;54.30;;;;;;4964380;28;20451;-71
2023/01/18 00:50:33;;;;;;;1.90;1.80;;;2.30;62.00;;;;;;4964170;28;20551;-70
2023/01/18 00:53:00;;;;;;;0.60;0.30;;;2.20;54.30;;;;;;4964893;28;20467;-70
2023/01/18 00:55:28;;;;;;;0.67;0.27;;;2.20;68.60;;;;;;4964517;28;20490;-69
2023/01/18 00:58:38;;;;;;;0.50;0.10;;;2.20;54.30;;;;;;4965793;28;20519;-72
2023/01/18 05:02:28;;;;;;;0.50;0.10;;;2.30;54.30;;;;;;5167041;23;21188;-75
2023/01/18 05:04:56;;;;;;;0.90;0.73;;;2.20;54.20;;;;;;4986072;28;20474;-75
2023/01/18 05:07:25;;;;;;;0.50;0.10;;;2.10;61.80;;;;;;4985626;28;20434;-75
2023/01/18 05:09:52;;;;;;;0.50;0.30;;;2.10;61.70;;;;;;4989020;28;20441;-74
2023/01/18 05:12:20;;;;;;;0.50;0.20;;;2.10;61.80;;;;;;4992110;28;20462;-73
2023/01/18 05:14:48;;;;;;;0.50;0.10;;;2.10;61.70;;;;;;4989132;28;20446;-76
2023/01/18 05:17:16;;;;;;;0.60;0.30;;;2.10;54.30;;;;;;4988983;23;20501;-69
2023/01/18 05:19:48;;;;;;;0.50;0.10;;;;;;;;;;4974730;28;20456;-68
2023/01/18 05:22:16;;;;;;;0.50;0.10;;;;;;;;;;4967586;28;20546;-68
2023/01/18 05:24:45;;;;;;;0.50;0.30;;;;;;;;;;4975316;28;20521;-68
2023/01/18 05:27:13;;;;;;;1.60;0.73;;;;;;;;;;4970143;28;20473;-69
2023/01/18 05:29:42;;;;;;;0.80;0.50;;;;;;;;;;4977748;28;20868;-67
2023/01/18 05:32:11;;;;;;;0.70;0.50;;;;;;;;;;4967160;28;20473;-68
2023/01/18 05:34:40;;;;;;;0.50;0.20;;;;;;;;;;4970005;28;20474;-68
2023/01/18 05:37:09;;;;;;;0.50;0.10;;;;;;;;;;4970787;28;20485;-68
2023/01/18 05:39:37;;;;;;;0.60;0.37;;;2.10;54.10;;;;;;4976126;28;20537;-69
2023/01/18 05:42:05;;;;;;;0.50;0.10;;;2.10;54.10;;;;;;4974540;28;20454;-69
2023/01/18 05:44:33;;;;;;;0.50;0.10;;;2.10;54.10;;;;;;4947987;28;20968;-68
2023/01/18 05:47:01;;;;;;;0.50;0.20;;;2.10;54.10;;;;;;4957211;29;20451;-68
2023/01/18 05:49:29;;;;;;;0.50;0.10;;;2.10;60.10;;;;;;4966266;28;20451;-68
2023/01/18 05:51:57;;;;;;;0.50;0.10;;;2.10;60.20;;;;;;4966325;28;20443;-67
2023/01/18 05:54:26;;;;;;;1.60;1.03;;;2.10;58.40;;;;;;4958376;28;20451;-67
2023/01/18 05:56:54;;;;;;;0.50;0.20;;;2.10;50.00;;;;;;4958231;28;20490;-68
2023/01/18 05:59:22;;;;;;;0.50;0.10;;;2.10;48.40;;;;;;4958308;28;20447;-67
2023/01/18 06:01:50;;;;;;;0.50;0.10;;;2.10;46.00;;;;;;4956530;28;20526;-68
2023/01/18 06:04:18;;;;;;;0.50;0.10;;;2.20;45.60;;;;;;4956942;28;20447;-67
2023/01/18 06:06:45;;;;;;;0.60;0.40;;;2.20;44.70;;;;;;4956722;28;20467;-68
2023/01/18 06:09:13;;;;;;;0.50;0.10;;;2.20;43.40;;;;;;4954912;28;20466;-68
2023/01/18 06:11:42;;;;;;;0.50;0.20;;;2.20;43.10;;;;;;4966156;28;20807;-67
2023/01/18 06:14:10;;;;;;;1.43;1.33;;;2.20;42.70;;;;;;4974798;28;20454;-67
2023/01/18 06:16:38;;;;;;;0.60;0.30;;;2.20;40.40;;;;;;4975650;28;20545;-68
2023/01/18 06:19:06;;;;;;;1.27;1.17;;;2.10;38.50;;;;;;4975891;28;20456;-69
2023/01/18 06:21:34;;;;;;;0.50;0.10;;;2.20;37.20;;;;;;4976027;28;20450;-68
2023/01/18 06:24:02;;;;;;;0.50;0.10;;;2.20;35.40;;;;;;4976257;28;20450;-68
2023/01/18 06:26:30;;;;;;;0.50;0.20;;;2.10;35.40;;;;;;4948075;28;20466;-68
2023/01/18 06:28:59;;;;;;;0.50;0.10;;;2.20;42.90;;;;;;4953625;28;20474;-68
2023/01/18 06:31:27;;;;;;;0.50;0.10;;;2.10;35.20;;;;;;4970472;28;20454;-68
2023/01/18 06:33:55;;;;;;;0.60;0.20;;;2.10;33.80;;;;;;4962320;28;20445;-68
2023/01/18 06:36:23;;;;;;;0.50;0.10;;;2.10;32.70;;;;;;4960341;28;20849;-68
2023/01/18 06:38:50;;;;;;;0.93;0.80;;;2.20;32.30;;;;;;4966663;28;20438;-69
2023/01/18 06:41:18;;;;;;;0.60;0.57;;;2.20;31.40;;;;;;4974509;28;20806;-69
2023/01/18 06:43:46;;;;;;;2.30;0.63;;;2.20;30.50;;;;;;4974776;28;20445;-68
2023/01/18 06:46:18;;;;;;;0.50;0.10;;;2.10;26.90;;;;;;4955917;28;20488;-68
2023/01/18 06:48:46;;;;;;;3.07;1.50;;;2.10;33.10;;;;;;4957876;28;20467;-68
2023/01/18 06:51:14;;;;;;;0.50;0.20;;;2.10;26.40;;;;;;4966517;28;20501;-69
2023/01/18 06:53:42;;;;;;;1.43;0.73;;;2.10;26.00;;;;;;4975114;28;20442;-68
2023/01/18 06:56:10;;;;;;;0.50;0.10;;;2.10;25.50;;;;;;4957047;28;20486;-68
2023/01/18 06:58:38;;;;;;;1.03;1.03;;;2.10;24.30;;;;;;4966794;28;20442;-69
2023/01/18 07:01:06;;;;;;;0.50;0.20;;;2.10;24.50;;;;;;4971676;28;20457;-69
2023/01/18 07:03:37;;;;;;;0.50;0.10;;;2.10;29.70;;;;;;4966415;28;20809;-68
2023/01/18 07:06:06;;;;;;;0.60;0.30;;;2.10;22.10;;;;;;4973968;28;20985;-69
2023/01/18 07:08:34;;;;;;;0.50;0.20;;;2.10;20.80;;;;;;4967071;28;20470;-68
2023/01/18 07:11:07;;;;;;;0.50;0.20;;;2.10;20.00;;;;;;4955760;28;20950;-70
2023/01/18 07:13:34;;;;;;;0.80;0.57;;;2.10;18.30;;;;;;4959273;28;20439;-68
2023/01/18 07:16:02;;;;;;;0.50;0.10;;;2.10;17.50;;;;;;4972144;28;20512;-69
2023/01/18 07:18:30;;;;;;;0.50;0.10;;;2.10;16.60;;;;;;4973793;28;20964;-69
2023/01/18 07:21:02;;;;;;;0.50;0.10;;;2.10;16.60;;;;;;4974571;28;20450;-69
2023/01/18 07:23:30;;;;;;;0.50;0.20;;;2.10;14.50;;;;;;4974494;28;20456;-68
2023/01/18 07:26:00;;;;;;;0.50;0.10;;;2.10;14.00;;;;;;4973894;28;20470;-69
2023/01/18 07:28:28;;;;;;;0.50;0.10;;;2.10;13.20;;;;;;4974432;28;20540;-69
2023/01/18 07:30:56;;;;;;;0.50;0.20;;;2.00;13.70;;;;;;4974111;28;20963;-69
2023/01/18 07:33:24;;;;;;;0.50;0.20;;;2.10;13.00;;;;;;4974438;28;20974;-68
2023/01/18 07:35:52;;;;;;;0.50;0.10;;;2.10;13.20;;;;;;4975252;28;21007;-70
2023/01/18 07:38:22;;;;;;;0.50;0.20;;;2.20;12.50;;;;;;4976126;28;20442;-69
2023/01/18 07:41:00;;;;;;;0.50;0.20;;;2.20;12.40;;;;;;4975498;28;20445;-69
2023/01/18 07:43:29;;;;;;;0.60;0.30;;;2.20;12.00;;;;;;4975350;28;20571;-69
2023/01/18 07:45:57;;;;;;;0.50;0.10;;;2.10;10.80;;;;;;4979389;28;21027;-68
2023/01/18 07:48:26;;;;;;;0.50;0.17;;;2.20;11.40;;;;;;4975882;28;20909;-68
2023/01/18 07:50:55;;;;;;;0.80;0.30;;;2.10;17.20;;;;;;4975090;28;20446;-68
2023/01/18 07:53:25;;;;;;;0.50;0.10;;;2.20;10.40;;;;;;4975392;28;20450;-67
2023/01/18 07:55:53;;;;;;;0.93;0.27;;;2.20;10.80;;;;;;4975335;28;20481;-68
2023/01/18 07:58:21;;;;;;;0.50;0.10;;;2.20;9.50;;;;;;4974793;28;21047;-68
2023/01/18 08:00:49;;;;;;;0.50;0.10;;;2.20;8.20;;;;;;4975069;28;20965;-69
2023/01/18 08:03:18;;;;;;;0.50;0.10;;;2.20;6.10;;;;;;4975117;28;20518;-69
2023/01/18 08:05:47;;;;;;;0.60;0.40;;;2.20;5.00;;;;;;4974404;28;20465;-68
2023/01/18 08:08:17;;;;;;;0.50;0.10;;;2.20;5.00;;;;;;4971113;28;20458;-68
2023/01/18 08:10:46;;;;;;;0.53;0.27;;;2.20;3.50;;;;;;4955090;29;20518;-69
2023/01/18 08:13:14;;;;;;;0.50;0.10;;;2.20;2.80;;;;;;4955184;29;20453;-68
2023/01/18 08:15:42;;;;;;;0.50;0.20;;;2.20;3.50;;;;;;4954824;28;20447;-69
2023/01/18 08:18:10;;;;;;;1.80;0.63;;;2.20;3.90;;;;;;4955259;29;20522;-69
2023/01/18 08:20:43;;;;;;;0.50;0.10;;;2.20;4.80;;;;;;4955364;28;20474;-68
2023/01/18 08:23:11;;;;;;;0.50;0.20;;;2.20;5.70;;;;;;4955198;29;20460;-69
2023/01/18 08:25:39;;;;;;;0.50;0.20;;;2.20;5.90;;;;;;4955638;28;20451;-69
2023/01/18 08:28:10;;;;;;;0.60;0.40;;;2.30;6.30;;;;;;4955240;29;20435;-67
2023/01/18 08:30:41;;;;;;;0.50;0.10;;;2.20;7.10;;;;;;4954228;29;20451;-68
2023/01/18 08:33:09;;;;;;;0.60;0.30;;;2.20;13.40;;;;;;4954211;29;20446;-70
2023/01/18 08:35:41;;;;;;;0.87;0.30;;;2.30;8.60;;;;;;4953772;28;20462;-68
2023/01/18 08:38:12;;;;;;;0.50;0.10;;;2.30;8.20;;;;;;4954082;29;20509;-70
2023/01/18 08:40:40;;;;;;;0.50;0.20;;;2.30;8.40;;;;;;4954052;28;20447;-69
2023/01/18 08:43:10;;;;;;;1.53;0.80;;;2.30;8.70;;;;;;4953910;28;20846;-69
2023/01/18 08:45:38;;;;;;;0.50;0.10;;;2.40;9.30;;;;;;4954025;28;20512;-69
2023/01/18 08:48:09;;;;;;;0.50;0.20;;;2.40;9.40;;;;;;4954264;29;20444;-67
2023/01/18 08:50:38;;;;;;;0.60;0.40;;;2.40;15.40;;;;;;4953909;28;21012;-68
2023/01/18 08:53:06;;;;;;;0.60;0.30;;;2.40;9.60;;;;;;4953976;29;20494;-68
2023/01/18 08:55:37;;;;;;;0.50;0.10;;;2.40;8.60;;;;;;4953794;28;20463;-68
2023/01/18 08:58:05;;;;;;;0.50;0.20;;;2.40;8.30;;;;;;4953776;29;20474;-69
2023/01/18 09:00:34;;;;;;;1.67;1.07;;;2.50;7.80;;;;;;4954102;29;20450;-68
2023/01/18 09:03:02;;;;;;;0.50;0.20;;;2.40;7.90;;;;;;4954059;29;20509;-69
2023/01/18 09:05:33;;;;;;;0.73;0.60;;;2.40;8.10;;;;;;4954628;28;20455;-68
2023/01/18 09:08:01;;;;;;;0.50;0.10;;;;;;;;;;4954240;29;20447;-69
2023/01/18 09:10:36;;;;;;;0.50;0.10;;;2.50;8.00;;;;;;4953689;28;20950;-69
2023/01/18 09:13:04;;;;;;;0.60;0.30;;;2.50;8.00;;;;;;4951769;28;21192;-68
2023/01/18 09:15:36;;;;;;;0.50;0.20;;;2.50;7.50;;;;;;4962380;28;20443;-68
2023/01/18 09:18:06;;;;;;;0.50;0.10;;;2.50;7.40;;;;;;4973749;28;20489;-69
2023/01/18 09:20:35;;;;;;;0.50;0.30;;;2.60;6.70;;;;;;4973750;28;20449;-68
2023/01/18 09:23:04;;;;;;;0.50;0.10;;;2.60;5.40;;;;;;4974229;28;20452;-68
2023/01/18 09:25:32;;;;;;;0.50;0.10;;;2.70;4.90;;;;;;4974002;28;20453;-69
2023/01/18 09:28:02;;;;;;;0.80;0.50;;;2.70;3.70;;;;;;4973061;28;20446;-70
2023/01/18 09:30:30;;;;;;;0.50;0.20;;;2.70;3.10;;;;;;4972812;28;20453;-69
2023/01/18 09:32:59;;;;;;;1.47;1.23;;;2.70;2.60;;;;;;4972859;28;20500;-68
2023/01/18 09:35:28;;;;;;;1.10;0.77;;;2.70;1.50;;;;;;4972838;28;20454;-70
2023/01/18 09:37:56;;;;;;;3.43;3.23;;;2.80;7.20;;;;;;4972704;28;21036;-69
2023/01/18 09:40:34;;;;;;;0.50;0.10;;;2.80;1.00;;;;;;4972865;28;20457;-68
2023/01/18 09:43:02;;;;;;;1.63;0.60;;;2.90;1.00;;;;;;4976090;28;20450;-70
2023/01/18 09:45:33;;;;;;;0.50;0.10;;;2.90;1.00;;;;;;4980158;28;21018;-69
2023/01/18 09:48:05;;;;;;;0.50;0.10;;;2.90;2.20;;;;;;4980363;28;20501;-69
2023/01/18 09:50:38;;;;;;;1.67;1.57;;;2.90;1.00;;;;;;4978561;28;20454;-69
2023/01/18 09:53:20;;;;;;;7.60;3.90;;;3.00;1.00;;;;;;4976358;28;20454;-69
2023/01/18 09:55:55;;;;;;;0.67;0.30;;;3.00;1.00;;;;;;4976389;28;20472;-69
2023/01/18 09:58:35;;;;;;;0.50;0.10;;;3.10;1.00;;;;;;4976013;28;20473;-69
2023/01/18 10:01:06;;;;;;;0.50;0.20;;;3.10;1.00;;;;;;4975804;28;20442;-68
2023/01/18 10:03:47;;;;;;;0.50;0.27;;;3.10;1.00;;;;;;4976187;28;20924;-69
2023/01/18 10:06:19;;;;;;;0.50;0.10;;;3.20;1.00;;;;;;4975831;28;20474;-69
2023/01/18 10:08:53;;;;;;;0.50;0.20;;;3.20;1.00;;;;;;4968210;28;20439;-68
2023/01/18 10:11:30;;;;;;;1.53;1.43;;;3.20;1.00;;;;;;4956268;29;20443;-68
2023/01/18 10:14:04;;;;;;;0.50;0.10;;;3.20;1.00;;;;;;4956270;29;20937;-68
2023/01/18 10:16:34;;;;;;;0.60;0.30;;;3.40;1.00;;;;;;4956164;28;20486;-69
2023/01/18 10:19:10;;;;;;;0.50;0.10;;;3.40;1.00;;;;;;4956043;29;20485;-69
2023/01/18 10:21:51;;;;;;;0.50;0.10;;;3.50;1.00;;;;;;4956106;29;20989;-69
2023/01/18 10:24:40;;;;;;;0.50;0.20;;;3.50;1.00;;;;;;4956473;29;20443;-69
2023/01/18 10:27:26;;;;;;;0.50;0.30;;;3.60;1.00;;;;;;4957452;28;20467;-69
2023/01/18 10:30:06;;;;;;;0.50;0.30;;;3.60;1.00;;;;;;4957465;29;20510;-68
2023/01/18 10:32:36;;;;;;;0.50;0.20;;;3.60;1.00;;;;;;4957511;29;20506;-69
2023/01/18 10:35:15;;;;;;;0.97;0.20;;;3.70;1.00;;;;;;4956917;29;20454;-69
2023/01/18 10:37:45;;;;;;;0.50;0.20;;;3.70;1.00;;;;;;4956334;28;20464;-68
2023/01/18 10:40:14;;;;;;;1.07;0.97;;;4.00;1.00;;;;;;4955921;28;20451;-69
2023/01/18 10:42:45;;;;;;;0.50;0.10;;;3.70;1.00;;;;;;4955610;29;20451;-69
2023/01/18 10:45:18;;;;;;;0.50;0.10;;;3.80;1.00;;;;;;4956009;28;20502;-69
2023/01/18 10:47:47;;;;;;;0.50;0.10;;;3.80;1.00;;;;;;4955725;28;20553;-67
2023/01/18 10:50:19;;;;;;;0.50;0.10;;;3.90;1.00;;;;;;4955661;29;20450;-68
2023/01/18 10:52:48;;;;;;;0.50;0.10;;;3.90;1.00;;;;;;4955758;28;20453;-69
2023/01/18 10:55:18;;;;;;;0.50;0.20;;;4.00;1.00;;;;;;4955474;29;20505;-69
2023/01/18 10:57:48;;;;;;;0.50;0.10;;;4.00;1.00;;;;;;4955541;28;20475;-69
2023/01/18 11:00:23;;;;;;;0.60;0.20;;;4.10;1.00;;;;;;4955273;28;20858;-68
2023/01/18 11:02:53;;;;;;;0.80;0.47;;;4.10;1.00;;;;;;4955395;29;20446;-69
2023/01/18 11:05:29;;;;;;;0.50;0.10;;;4.20;1.00;;;;;;4955231;29;20447;-69
2023/01/18 11:08:22;;;;;;;0.50;0.10;;;4.10;1.00;;;;;;4955195;29;20450;-69
2023/01/18 11:10:59;;;;;;;0.80;0.47;;;4.30;1.00;;;;;;4955064;28;20451;-69
2023/01/18 11:13:31;;;;;;;0.50;0.10;;;4.20;1.00;;;;;;4954920;28;20953;-68
2023/01/18 11:18:58;;;;;;;0.67;0.20;;;4.30;1.00;;;;;;4917647;29;20536;-72
2023/01/18 11:21:39;;;;;;;0.50;0.20;;;4.30;1.00;;;;;;4919989;29;20477;-75
2023/01/18 11:24:12;;;;;;;0.50;0.10;;;4.30;1.00;;;;;;4919468;29;20483;-75
2023/01/18 11:26:52;;;;;;;0.50;0.20;;;4.20;1.00;;;;;;4918897;29;20473;-75
2023/01/18 11:29:24;;;;;;;0.50;0.10;;;4.30;1.00;;;;;;4919449;29;20444;-74
2023/01/18 11:31:55;;;;;;;0.50;0.20;;;4.30;1.00;;;;;;4919511;29;20452;-76
2023/01/18 11:34:28;;;;;;;0.50;0.10;;;4.30;1.00;;;;;;4918837;29;20454;-74
2023/01/18 11:36:59;;;;;;;0.50;0.10;;;4.30;1.00;;;;;;4919102;29;20991;-72
2023/01/18 11:39:30;;;;;;;0.50;0.10;;;4.30;1.00;;;;;;4920388;29;21015;-72
2023/01/18 11:42:21;;;;;;;0.50;0.10;;;4.40;1.00;;;;;;4919818;29;20449;-74
2023/01/18 11:44:59;;;;;;;0.50;0.10;;;4.50;1.00;;;;;;4919667;29;20451;-75
2023/01/18 11:47:32;;;;;;;0.50;0.10;;;4.50;1.00;;;;;;4919892;29;20568;-73
2023/01/18 11:50:11;;;;;;;7.10;1.60;;;4.40;1.00;;;;;;4920363;29;20444;-73
2023/01/18 11:52:53;;;;;;;0.50;0.10;;;4.50;1.00;;;;;;4920035;29;20932;-74
2023/01/18 11:55:30;;;;;;;0.77;0.40;;;4.40;1.00;;;;;;4919962;29;20457;-76
2023/01/18 11:57:59;;;;;;;0.50;0.10;;;4.40;1.00;;;;;;4920967;29;20477;-75
2023/01/18 12:00:37;;;;;;;0.50;0.10;;;5.60;1.00;;;;;;4919439;29;20496;-74
2023/01/18 12:03:34;;;;;;;1.60;1.50;;;4.40;1.00;;;;;;4919532;29;20455;-74
2023/01/18 12:06:05;;;;;;;0.50;0.10;;;4.40;1.00;;;;;;4918475;29;20457;-74
2023/01/18 12:08:50;;;;;;;0.50;0.10;;;4.40;1.00;;;;;;4919245;29;20445;-73
2023/01/18 12:11:39;;;;;;;0.50;0.20;;;4.30;1.00;;;;;;4921022;29;20458;-74
2023/01/18 12:14:20;;;;;;;0.50;0.10;;;4.30;1.00;;;;;;4922414;29;20951;-75
2023/01/18 12:17:01;;;;;;;0.50;0.10;;;4.40;1.00;;;;;;4926701;29;20488;-76
2023/01/18 12:19:51;;;;;;;0.50;0.10;;;4.40;1.00;;;;;;4921879;29;20531;-75
2023/01/18 12:22:41;;;;;;;0.50;0.10;;;4.50;1.00;;;;;;4920768;29;20500;-76
2023/01/18 12:25:25;;;;;;;0.50;0.10;;;4.50;1.00;;;;;;4918280;29;20560;-74
2023/01/18 12:28:06;;;;;;;0.50;0.10;;;4.60;1.00;;;;;;4918473;29;20476;-74
2023/01/18 12:30:45;;;;;;;0.50;0.10;;;4.60;1.00;;;;;;4920628;29;20449;-73
2023/01/18 12:33:24;;;;;;;0.50;0.10;;;4.70;1.00;;;;;;4919962;29;20939;-72
2023/01/18 12:36:18;;;;;;;0.50;0.10;;;4.80;1.00;;;;;;4923091;29;20457;-75
2023/01/18 12:38:51;;;;;;;0.50;0.10;;;4.80;1.00;;;;;;4923367;29;20467;-74
2023/01/18 12:41:36;;;;;;;0.50;0.10;;;4.90;1.00;;;;;;4923603;29;20433;-74
2023/01/18 12:44:40;;;;;;;0.50;0.10;;;4.90;1.00;;;;;;4917159;29;20936;-74
2023/01/18 12:47:23;;;;;;;0.67;0.47;;;4.90;1.00;;;;;;4918393;29;20473;-73
2023/01/18 12:49:58;;;;;;;0.50;0.10;;;4.90;1.00;;;;;;4920810;29;20492;-75
2023/01/18 12:52:27;;;;;;;0.50;0.10;;;4.90;1.00;;;;;;4916704;29;20444;-76
2023/01/18 12:54:59;;;;;;;0.50;0.10;;;5.00;1.00;;;;;;4917916;29;20452;-74
2023/01/18 12:57:29;;;;;;;0.50;0.10;;;4.90;1.00;;;;;;4917917;29;20465;-73
2023/01/18 13:00:01;;;;;;;0.50;0.10;;;4.90;1.00;;;;;;4917086;29;20495;-76
2023/01/18 13:02:32;;;;;;;0.50;0.10;;;5.10;1.00;;;;;;4916722;29;20468;-75
2023/01/18 13:05:06;;;;;;;0.50;0.30;;;5.10;1.00;;;;;;4916145;29;20449;-74
2023/01/18 13:07:39;;;;;;;0.50;0.10;;;5.00;1.00;;;;;;4915703;29;20975;-75
2023/01/18 13:10:19;;;;;;;3.63;3.40;;;5.00;1.00;;;;;;4917344;29;21102;-72
2023/01/18 13:12:50;;;;;;;1.73;0.50;;;5.00;1.00;;;;;;4919558;29;20453;-74
2023/01/18 13:15:34;;;;;;;1.47;0.40;;;4.90;1.00;;;;;;4920148;29;20461;-73
2023/01/18 13:18:08;;;;;;;0.50;0.10;;;4.90;1.00;;;;;;4916542;29;20515;-75
2023/01/18 13:20:48;;;;;;;0.50;0.20;;;4.90;1.00;;;;;;4915938;29;20492;-75
2023/01/18 13:23:27;;;;;;;0.50;0.10;;;4.90;1.00;;;;;;4915927;29;20500;-76
2023/01/18 13:26:05;;;;;;;0.50;0.10;;;4.90;1.00;;;;;;4920385;29;20453;-74
2023/01/18 13:28:35;;;;;;;0.50;0.10;;;4.90;1.00;;;;;;4919585;29;20460;-74
2023/01/18 13:31:05;;;;;;;0.60;0.50;;;4.90;1.00;;;;;;4919899;29;20440;-74
2023/01/18 13:33:35;;;;;;;0.50;0.20;;;4.90;1.00;;;;;;4920688;29;20471;-73
2023/01/18 13:36:06;;;;;;;0.50;0.10;;;4.90;1.00;;;;;;4919666;29;20453;-74
2023/01/18 13:38:37;;;;;;;0.60;0.40;;;4.90;1.00;;;;;;4920821;29;20449;-73
2023/01/18 13:41:11;;;;;;;0.50;0.10;;;4.90;1.00;;;;;;4921566;29;20963;-73
2023/01/18 13:44:06;;;;;;;0.50;0.10;;;4.90;1.00;;;;;;4921307;29;20453;-74
2023/01/18 13:46:37;;;;;;;1.60;0.57;;;4.90;1.00;;;;;;4919427;29;20993;-74
2023/01/18 13:49:30;;;;;;;0.70;0.40;;;4.90;1.00;;;;;;4920076;29;20444;-73
2023/01/18 13:52:31;;;;;;;1.47;1.43;;;4.90;1.00;;;;;;4919716;29;20476;-73
2023/01/18 13:55:22;;;;;;;1.03;0.93;;;4.80;1.00;;;;;;4920121;29;20514;-77
2023/01/18 13:57:53;;;;;;;0.50;0.10;;;4.80;1.00;;;;;;4920801;29;20503;-75
2023/01/18 14:00:25;;;;;;;0.60;0.33;;;4.70;1.00;;;;;;4925534;29;20480;-75
2023/01/18 14:03:02;;;;;;;0.50;0.10;;;4.70;1.00;;;;;;4923336;29;20445;-73
2023/01/18 14:05:36;;;;;;;0.60;0.33;;;4.70;1.00;;;;;;4920535;29;20452;-74
2023/01/18 14:08:05;;;;;;;0.50;0.10;;;4.70;1.00;;;;;;4919903;29;20483;-75
2023/01/18 14:10:37;;;;;;;0.50;0.10;;;4.60;1.00;;;;;;4920571;29;20441;-76
2023/01/18 14:13:07;;;;;;;1.73;1.43;;;4.60;1.00;;;;;;4920487;29;20964;-74
2023/01/18 14:15:50;;;;;;;0.50;0.10;;;4.50;1.00;;;;;;4920534;29;20460;-74
2023/01/18 14:18:24;;;;;;;0.50;0.20;;;4.50;1.00;;;;;;4920367;29;20473;-72
2023/01/18 14:21:04;;;;;;;0.67;0.67;;;4.50;1.00;;;;;;4919693;29;20488;-75
2023/01/18 14:24:08;;;;;;;0.50;0.20;;;4.50;1.00;;;;;;4919337;29;20453;-76
2023/01/18 14:26:40;;;;;;;0.50;0.10;;;4.50;1.00;;;;;;4918701;29;21002;-76
2023/01/18 14:29:13;;;;;;;0.50;0.10;;;4.40;1.00;;;;;;4919778;29;20457;-75
2023/01/18 14:31:46;;;;;;;0.50;0.10;;;4.50;1.00;;;;;;4919320;29;20441;-77
2023/01/18 14:34:36;;;;;;;0.50;0.10;;;4.40;1.00;;;;;;4918500;29;20441;-75
2023/01/18 14:37:04;;;;;;;0.50;0.10;;;4.40;1.00;;;;;;4918653;29;20536;-76
2023/01/18 14:39:32;;;;;;;0.50;0.10;;;4.40;1.00;;;;;;4919132;29;20452;-74
2023/01/18 14:42:03;;;;;;;0.83;0.57;;;4.40;1.00;;;;;;4919263;29;20519;-75
2023/01/18 14:44:39;;;;;;;0.60;0.30;;;4.40;1.00;;;;;;4918721;29;20512;-74
2023/01/18 14:47:30;;;;;;;0.50;0.10;;;4.40;1.00;;;;;;4918834;29;20520;-75
2023/01/18 14:49:58;;;;;;;0.50;0.10;;;4.40;1.00;;;;;;4918174;29;20452;-75
2023/01/18 14:52:30;;;;;;;0.50;0.10;;;4.30;1.00;;;;;;4917964;29;20536;-75
2023/01/18 14:54:58;;;;;;;0.50;0.10;;;4.40;1.00;;;;;;4917803;29;20437;-74
2023/01/18 14:57:26;;;;;;;0.50;0.10;;;4.30;1.00;;;;;;4918693;29;20469;-74
2023/01/18 14:59:55;;;;;;;0.50;0.10;;;4.30;1.00;;;;;;4918570;29;20453;-77
2023/01/18 15:02:27;;;;;;;0.50;0.10;;;4.30;1.00;;;;;;4919271;29;20449;-75
2023/01/18 15:05:10;;;;;;;0.50;0.10;;;4.30;1.00;;;;;;4919979;29;20460;-75
2023/01/18 15:07:39;;;;;;;0.50;0.10;;;4.30;1.00;;;;;;4924334;29;20568;-75
2023/01/18 15:10:08;;;;;;;0.50;0.20;;;4.20;1.00;;;;;;4924051;29;20483;-75
2023/01/18 15:12:38;;;;;;;0.50;0.10;;;4.30;1.00;;;;;;4925437;29;20464;-74
2023/01/18 15:15:11;;;;;;;0.50;0.10;;;4.30;1.00;;;;;;4922577;29;20456;-75
2023/01/18 15:17:40;;;;;;;0.50;0.10;;;4.20;1.00;;;;;;4919773;29;20476;-73
2023/01/18 15:20:14;;;;;;;0.50;0.10;;;4.20;1.00;;;;;;4917347;29;20508;-75
2023/01/18 15:22:42;;;;;;;0.50;0.10;;;4.20;1.00;;;;;;4917768;29;20504;-75
2023/01/18 15:25:18;;;;;;;0.50;0.10;;;4.20;1.00;;;;;;4919076;29;20591;-73
2023/01/18 15:27:51;;;;;;;0.50;0.10;;;4.20;1.00;;;;;;4919918;29;20476;-74
2023/01/18 15:30:21;;;;;;;0.50;0.10;;;4.20;1.00;;;;;;4923644;29;20456;-74
2023/01/18 15:32:55;;;;;;;0.50;0.10;;;4.20;1.00;;;;;;4925098;29;20458;-76
2023/01/18 15:35:25;;;;;;;0.50;0.10;;;4.20;1.00;;;;;;4920889;29;20499;-74
2023/01/18 15:37:53;;;;;;;0.50;0.10;;;4.20;1.00;;;;;;4921699;29;20469;-74
2023/01/18 15:40:24;;;;;;;0.50;0.10;;;4.30;1.00;;;;;;4917947;29;20457;-75
2023/01/18 15:42:58;;;;;;;0.50;0.20;;;4.50;1.00;;;;;;4921846;29;20429;-74
2023/01/18 15:45:28;;;;;;;0.50;0.10;;;4.40;1.00;;;;;;4917585;29;20449;-75
2023/01/18 15:48:00;;;;;;;0.50;0.10;;;4.30;1.00;;;;;;4917496;29;20520;-74
2023/01/18 15:50:35;;;;;;;0.90;0.60;;;4.20;1.00;;;;;;4919778;29;20442;-76
2023/01/18 15:53:11;;;;;;;0.50;0.10;;;4.10;1.00;;;;;;4916863;29;20851;-73
2023/01/18 15:55:45;;;;;;;0.50;0.10;;;3.80;1.00;;;;;;4917239;29;20453;-75
2023/01/18 15:58:24;;;;;;;6.93;2.47;;;3.80;1.00;;;;;;4916806;29;20473;-74
2023/01/18 16:00:55;;;;;;;0.67;0.40;;;3.70;1.00;;;;;;4916907;29;20495;-74
2023/01/18 16:03:27;;;;;;;5.70;2.10;;;3.70;1.00;;;;;;4926646;29;20445;-74
2023/01/18 16:06:09;;;;;;;0.50;0.10;;;3.50;1.00;;;;;;4926299;29;20433;-75
2023/01/18 16:08:55;;;;;;;0.50;0.10;;;3.50;1.00;;;;;;4918982;29;20472;-76
2023/01/18 16:11:29;;;;;;;0.50;0.10;;;3.50;1.00;;;;;;4916696;29;20804;-75
2023/01/18 16:13:58;;;;;;;0.60;0.57;;;3.40;1.00;;;;;;4916981;29;20459;-75
2023/01/18 16:16:28;;;;;;;0.50;0.10;;;3.40;1.00;;;;;;4916793;29;20484;-76
2023/01/18 16:19:05;;;;;;;0.50;0.10;;;4.50;1.00;;;;;;4917661;29;20481;-73
2023/01/18 16:21:40;;;;;;;0.50;0.10;;;3.30;1.00;;;;;;4920053;29;20476;-73
2023/01/18 16:24:25;;;;;;;0.50;0.10;;;3.30;1.00;;;;;;4920694;29;20865;-75
2023/01/18 16:26:53;;;;;;;0.60;0.33;;;3.30;1.00;;;;;;4918131;29;20547;-73
2023/01/18 16:29:21;;;;;;;0.50;0.10;;;3.10;1.00;;;;;;4917284;29;20448;-74
2023/01/18 16:31:49;;;;;;;0.50;0.10;;;3.10;1.00;;;;;;4916865;29;20445;-74
2023/01/18 16:34:24;;;;;;;0.50;0.10;;;3.10;1.00;;;;;;4916753;29;20889;-73
2023/01/18 16:36:53;;;;;;;0.50;0.10;;;3.00;1.00;;;;;;4916526;29;20464;-73
2023/01/18 16:39:22;;;;;;;0.50;0.20;;;3.00;1.00;;;;;;4916373;29;20829;-74
2023/01/18 16:41:53;;;;;;;0.50;0.10;;;3.10;1.00;;;;;;4916716;29;20480;-73
2023/01/18 16:44:21;;;;;;;0.50;0.20;;;3.00;1.00;;;;;;4916380;29;20825;-72
2023/01/18 16:46:49;;;;;;;0.50;0.10;;;3.00;1.00;;;;;;4917107;29;20499;-75
2023/01/18 16:49:17;;;;;;;0.50;0.10;;;3.00;1.00;;;;;;4918493;29;20479;-75
2023/01/18 16:51:47;;;;;;;0.50;0.10;;;3.00;1.00;;;;;;4919168;29;20476;-78
2023/01/18 16:54:17;;;;;;;0.50;0.27;;;2.90;1.00;;;;;;4923167;29;20508;-73
2023/01/18 16:56:46;;;;;;;0.50;0.40;;;2.90;1.00;;;;;;4920133;29;20497;-73
2023/01/18 16:59:16;;;;;;;1.07;0.87;;;3.00;1.00;;;;;;4932310;29;20451;-76
2023/01/18 17:01:44;;;;;;;0.50;0.10;;;2.90;1.00;;;;;;4921225;29;20492;-75
2023/01/18 17:04:13;;;;;;;0.50;0.23;;;2.90;1.00;;;;;;4925786;29;20496;-74
2023/01/18 17:06:41;;;;;;;0.50;0.30;;;2.90;1.00;;;;;;4935261;29;20942;-76
2023/01/18 17:09:19;;;;;;;1.63;1.53;;;2.90;1.00;;;;;;4920437;29;20464;-73
2023/01/18 17:11:47;;;;;;;0.50;0.20;;;2.80;1.00;;;;;;4920703;29;20920;-73
2023/01/18 17:14:16;;;;;;;0.50;0.10;;;2.80;1.00;;;;;;4931836;29;20468;-74
2023/01/18 17:16:45;;;;;;;0.50;0.10;;;;;;;;;;4943885;23;20563;31
2023/01/18 17:19:15;;;;;;;0.50;0.10;;;2.80;1.00;;;;;;4965240;28;20535;-72
2023/01/18 17:21:44;;;;;;;0.50;0.10;;;2.80;1.00;;;;;;4973393;28;20884;-71
2023/01/18 17:24:14;;;;;;;1.27;0.50;;;;;;;;;;4966712;28;20477;-73
2023/01/18 17:26:43;;;;;;;0.50;0.20;;;2.80;1.00;;;;;;4960761;28;20446;-71
2023/01/18 17:29:16;;;;;;;0.50;0.10;;;2.80;1.00;;;;;;4956897;29;20473;-71
2023/01/18 17:31:45;;;;;;;0.50;0.13;;;;;;;;;;4942619;29;20977;-72
2023/01/18 17:34:21;;;;;;;1.23;1.13;;;2.80;1.00;;;;;;4937703;29;21056;-72
2023/01/18 17:36:56;;;;;;;0.50;0.20;;;2.80;1.00;;;;;;4955028;28;20465;-72
2023/01/18 17:39:24;;;;;;;0.50;0.10;;;2.80;1.00;;;;;;4970086;28;20720;-72
2023/01/18 17:42:13;;;;;;;0.50;0.10;;;2.70;1.00;;;;;;4955602;29;20478;-72